createdAt,value
2022-11-04T00:01:11.804Z,95.01
2022-11-04T00:16:22.139Z,94.12
2022-11-04T00:31:38.139Z,93.08
2022-11-04T00:46:35.703Z,90.50
2022-11-04T01:01:26.872Z,89.31
2022-11-04T01:16:17.976Z,88.88
2022-11-04T01:31:08.649Z,89.42
2022-11-04T01:45:59.556Z,90.17
2022-11-04T02:00:51.191Z,90.00
2022-11-04T02:16:12.069Z,90.20
2022-11-04T02:31:11.336Z,89.00
2022-11-04T02:46:05.317Z,88.47
2022-11-04T03:00:57.243Z,88.98
2022-11-04T03:15:51.789Z,89.65
2022-11-04T03:30:45.793Z,88.61
2022-11-04T03:45:37.870Z,88.98
2022-11-04T04:00:28.805Z,90.08
2022-11-04T04:15:19.062Z,90.13
2022-11-04T04:30:11.022Z,89.71
2022-11-04T04:45:04.712Z,90.68
2022-11-04T05:00:00.154Z,91.00
2022-11-04T05:14:51.979Z,90.65
2022-11-04T05:29:43.079Z,90.47
2022-11-04T05:44:34.935Z,90.75
2022-11-04T05:59:26.284Z,91.60
2022-11-04T06:14:18.856Z,91.38
2022-11-04T06:29:08.497Z,91.50
2022-11-04T06:44:00.755Z,90.38
2022-11-04T06:58:51.965Z,90.61
2022-11-04T07:13:43.213Z,90.44
2022-11-04T07:28:35.924Z,89.51
2022-11-04T07:43:28.026Z,88.33
2022-11-04T07:58:20.213Z,87.01
2022-11-04T08:13:12.214Z,83.69
2022-11-04T08:28:04.640Z,82.30
2022-11-04T08:42:56.935Z,79.50
2022-11-04T08:57:49.563Z,79.42
2022-11-04T09:12:41.693Z,79.49
2022-11-04T09:27:34.436Z,78.47
2022-11-04T09:42:36.043Z,76.27
2022-11-04T09:57:33.134Z,73.99
2022-11-04T10:12:39.571Z,74.82
2022-11-04T10:27:37.181Z,73.93
2022-11-04T10:42:29.018Z,76.15
2022-11-04T10:57:26.316Z,72.87
2022-11-04T11:12:49.584Z,77.26
2022-11-04T11:27:14.039Z,81.10
2022-11-04T11:42:08.523Z,79.62
2022-11-04T11:57:24.108Z,77.08
2022-11-04T12:12:21.843Z,74.21
2022-11-04T12:27:29.527Z,72.75
2022-11-04T12:58:10.486Z,70.49
2022-11-04T13:13:07.880Z,71.01
2022-11-04T13:43:36.678Z,65.72
2022-11-04T13:58:35.055Z,65.13
2022-11-04T14:13:30.867Z,65.30
2022-11-04T14:28:21.987Z,65.05
2022-11-04T14:43:18.819Z,70.67
2022-11-04T14:58:25.095Z,69.93
2022-11-04T15:13:21.297Z,72.30
2022-11-04T15:28:17.456Z,72.34
2022-11-04T15:43:13.056Z,74.14
2022-11-04T15:58:05.396Z,75.11
2022-11-04T16:12:59.825Z,76.22
2022-11-04T16:27:54.370Z,77.83
2022-11-04T16:42:46.503Z,78.78
2022-11-04T16:57:37.749Z,79.37
2022-11-04T17:12:28.799Z,82.37
2022-11-04T17:27:20.342Z,83.95
2022-11-04T17:42:30.042Z,85.50
2022-11-04T17:57:27.250Z,86.25
2022-11-04T18:12:41.887Z,85.54
2022-11-04T18:27:34.641Z,84.67
2022-11-04T18:42:26.256Z,85.07
2022-11-04T18:57:17.527Z,84.30
2022-11-04T19:12:27.815Z,85.95
2022-11-04T19:27:25.354Z,87.05
2022-11-04T19:42:35.222Z,87.49
2022-11-04T19:57:32.733Z,86.79
2022-11-04T20:12:42.618Z,87.41
2022-11-04T20:27:40.113Z,89.50
2022-11-04T20:42:31.906Z,90.37
2022-11-04T20:57:23.222Z,91.48
2022-11-04T21:12:14.364Z,90.54
2022-11-04T21:27:05.696Z,89.37
2022-11-04T21:41:57.387Z,89.17
2022-11-04T21:56:49.361Z,89.44
2022-11-04T22:11:40.836Z,89.30
2022-11-04T22:26:31.425Z,89.16
2022-11-04T22:41:22.574Z,89.31
2022-11-04T22:56:14.060Z,89.87
2022-11-04T23:11:23.544Z,89.94
2022-11-04T23:26:21.344Z,90.67
2022-11-04T23:41:28.944Z,92.06
2022-11-04T23:56:45.910Z,94.15
